Terminal Aerodrome Forecast
Issued by NWS Cleveland, OH

Home | Current Version | Previous Version | Text Only | Print | Product List | Glossary Off
Versions: 1 2 3 4 5 6 7 8 9 10 11 12 13 14 15 16 17 18 19 20 21 22

212
FTUS41 KCLE 280535
TAFTOL
TAF
KTOL 280535Z 2806/2906 VRB03KT P6SM SCT250
      TEMPO 2809/2812 5SM BR
     FM281500 06006KT P6SM SCT050 BKN200
     FM290100 02005KT P6SM SCT050 BKN150=

USA.gov is the U.S. government's official web portal to all federal, state and local government web resources and services.